Main page
METAR-TAF:

METAR-TAF

Airports :

Montpellier–Méditerranée Airport

Montpellier, France

latitude: 43-35N, longitude: 003-58E, elevation: 5 m

Current weather observation

The report was made 18 minutes ago, at 20:00 UTC
Wind 9 kt from the West/Northwest
Temperature 26°C
Humidity 54%
Pressure 1015 hPa
Visibility 10 km or more
no clouds below 1500 m and no cumulonimbus

METAR: LFMT 282000Z AUTO 29009KT CAVOK 26/16 Q1015 NOSIG

Time: 22:18 (20:18 UTC)

Forecast

The report was made 6 hours and 18 minutes ago, at 14:00 UTC
Forecast valid from 28 at 15 UTC to 29 at 15 UTC
Wind 12 kt from the Southwest
Visibility 10 km or more
no clouds below 1500 m and no cumulonimbus
Becoming
from 28 at 18 UTC to 28 at 20 UTC
Wind 10 kt from the West/Northwest
Becoming
from 29 at 05 UTC to 29 at 08 UTC
Wind 10 kt from the North/Northeast
Becoming
from 29 at 09 UTC to 29 at 11 UTC
Wind 10 kt from the South

TAF: LFMT 281400Z 2815/2915 22012KT CAVOK BECMG 2818/2820 30010KT BECMG 2905/2908 03010KT BECMG 2909/2911 19010KT

Weather observations and forecasts of more than 4000 airports (METAR and TAF reports).

The available stations are represented by yellow and red dots on the map.

Hover mouse over dot to see the name of the station.

Then click to see weather observations and forecasts.

To change the map : click on the green buttons with a black cross to zoom in, on the green button with a dash to zoom out, or on the green arrows for adjacent maps.


METAR-TAF: